sensor_id;sensor_type;location;lat;lon;timestamp;pressure;altitude;pressure_sealevel;temperature;humidity
65659;BME280;60181;53.258;6.932;2023-09-19T00:01:47;100515.14;;;20.60;66.78
65659;BME280;60181;53.258;6.932;2023-09-19T00:06:07;100518.65;;;20.59;66.73
65659;BME280;60181;53.258;6.932;2023-09-19T00:10:28;100522.75;;;20.58;66.79
65659;BME280;60181;53.258;6.932;2023-09-19T00:14:47;100527.92;;;20.57;66.72
65659;BME280;60181;53.258;6.932;2023-09-19T00:19:07;100533.03;;;20.55;66.91
65659;BME280;60181;53.258;6.932;2023-09-19T00:23:27;100536.80;;;20.54;66.59
65659;BME280;60181;53.258;6.932;2023-09-19T00:27:47;100541.08;;;20.53;66.77
65659;BME280;60181;53.258;6.932;2023-09-19T00:32:07;100545.75;;;20.52;66.59
65659;BME280;60181;53.258;6.932;2023-09-19T00:36:27;100550.66;;;20.51;66.41
65659;BME280;60181;53.258;6.932;2023-09-19T00:40:48;100555.26;;;20.50;66.45
65659;BME280;60181;53.258;6.932;2023-09-19T00:45:08;100558.43;;;20.48;66.09
65659;BME280;60181;53.258;6.932;2023-09-19T00:49:27;100562.11;;;20.47;66.00
65659;BME280;60181;53.258;6.932;2023-09-19T00:53:47;100564.61;;;20.46;65.94
65659;BME280;60181;53.258;6.932;2023-09-19T00:58:08;100567.82;;;20.45;65.73
65659;BME280;60181;53.258;6.932;2023-09-19T01:02:27;100570.83;;;20.44;65.84
65659;BME280;60181;53.258;6.932;2023-09-19T01:06:47;100574.84;;;20.43;65.44
65659;BME280;60181;53.258;6.932;2023-09-19T01:24:10;100591.51;;;20.39;64.97
65659;BME280;60181;53.258;6.932;2023-09-19T01:28:31;100595.86;;;20.39;64.73
65659;BME280;60181;53.258;6.932;2023-09-19T01:32:49;100598.60;;;20.38;64.45
65659;BME280;60181;53.258;6.932;2023-09-19T01:37:07;100602.69;;;20.38;64.57
65659;BME280;60181;53.258;6.932;2023-09-19T01:41:38;100605.38;;;20.37;64.28
65659;BME280;60181;53.258;6.932;2023-09-19T01:45:52;100608.62;;;20.36;64.20
65659;BME280;60181;53.258;6.932;2023-09-19T01:50:17;100613.03;;;20.36;63.96
65659;BME280;60181;53.258;6.932;2023-09-19T01:54:30;100616.28;;;20.35;64.40
65659;BME280;60181;53.258;6.932;2023-09-19T01:58:48;100618.92;;;20.36;63.97
65659;BME280;60181;53.258;6.932;2023-09-19T02:03:08;100620.74;;;20.37;63.70
65659;BME280;60181;53.258;6.932;2023-09-19T02:07:27;100622.24;;;20.37;63.43
65659;BME280;60181;53.258;6.932;2023-09-19T02:11:47;100625.42;;;20.36;63.23
65659;BME280;60181;53.258;6.932;2023-09-19T02:16:07;100627.78;;;20.34;63.20
65659;BME280;60181;53.258;6.932;2023-09-19T02:20:27;100629.86;;;20.34;62.89
65659;BME280;60181;53.258;6.932;2023-09-19T02:24:47;100631.70;;;20.33;62.92
65659;BME280;60181;53.258;6.932;2023-09-19T02:29:07;100634.48;;;20.32;62.77
65659;BME280;60181;53.258;6.932;2023-09-19T02:33:28;100635.89;;;20.31;62.65
65659;BME280;60181;53.258;6.932;2023-09-19T02:37:47;100637.54;;;20.32;63.27
65659;BME280;60181;53.258;6.932;2023-09-19T02:42:07;100639.51;;;20.33;62.92
65659;BME280;60181;53.258;6.932;2023-09-19T02:46:27;100641.29;;;20.33;62.44
65659;BME280;60181;53.258;6.932;2023-09-19T02:50:50;100642.94;;;20.32;62.16
65659;BME280;60181;53.258;6.932;2023-09-19T02:55:07;100642.69;;;20.32;61.81
65659;BME280;60181;53.258;6.932;2023-09-19T02:59:27;100643.07;;;20.30;61.51
65659;BME280;60181;53.258;6.932;2023-09-19T03:03:47;100644.81;;;20.29;61.24
65659;BME280;60181;53.258;6.932;2023-09-19T03:08:07;100645.25;;;20.28;61.03
65659;BME280;60181;53.258;6.932;2023-09-19T03:12:27;100646.76;;;20.27;60.90
65659;BME280;60181;53.258;6.932;2023-09-19T03:16:47;100649.20;;;20.26;60.82
65659;BME280;60181;53.258;6.932;2023-09-19T03:21:07;100651.95;;;20.25;60.66
65659;BME280;60181;53.258;6.932;2023-09-19T03:25:27;100653.81;;;20.24;60.69
65659;BME280;60181;53.258;6.932;2023-09-19T03:29:47;100654.83;;;20.23;60.62
65659;BME280;60181;53.258;6.932;2023-09-19T03:34:07;100656.23;;;20.21;60.68
65659;BME280;60181;53.258;6.932;2023-09-19T03:38:27;100658.17;;;20.20;60.62
65659;BME280;60181;53.258;6.932;2023-09-19T03:42:47;100661.68;;;20.20;60.55
65659;BME280;60181;53.258;6.932;2023-09-19T03:47:07;100664.26;;;20.19;60.47
65659;BME280;60181;53.258;6.932;2023-09-19T03:51:27;100664.67;;;20.18;60.37
65659;BME280;60181;53.258;6.932;2023-09-19T03:55:47;100664.97;;;20.16;60.47
65659;BME280;60181;53.258;6.932;2023-09-19T04:00:07;100663.56;;;20.15;60.26
65659;BME280;60181;53.258;6.932;2023-09-19T04:04:27;100664.40;;;20.14;60.34
65659;BME280;60181;53.258;6.932;2023-09-19T04:08:47;100665.92;;;20.14;60.33
65659;BME280;60181;53.258;6.932;2023-09-19T04:13:07;100668.52;;;20.13;60.46
65659;BME280;60181;53.258;6.932;2023-09-19T04:17:27;100669.86;;;20.12;60.32
65659;BME280;60181;53.258;6.932;2023-09-19T04:21:47;100671.37;;;20.11;60.30
65659;BME280;60181;53.258;6.932;2023-09-19T04:26:07;100674.44;;;20.10;60.27
65659;BME280;60181;53.258;6.932;2023-09-19T04:30:27;100676.53;;;20.09;60.26
65659;BME280;60181;53.258;6.932;2023-09-19T04:34:47;100679.19;;;20.10;61.05
65659;BME280;60181;53.258;6.932;2023-09-19T04:39:07;100681.23;;;20.11;62.32
65659;BME280;60181;53.258;6.932;2023-09-19T04:43:27;100686.35;;;20.10;62.37
65659;BME280;60181;53.258;6.932;2023-09-19T04:47:47;100688.01;;;20.07;62.17
65659;BME280;60181;53.258;6.932;2023-09-19T04:52:07;100690.41;;;20.04;61.91
65659;BME280;60181;53.258;6.932;2023-09-19T04:56:27;100693.75;;;20.01;61.66
65659;BME280;60181;53.258;6.932;2023-09-19T05:00:47;100692.70;;;19.99;61.38
65659;BME280;60181;53.258;6.932;2023-09-19T05:05:07;100693.16;;;19.97;61.28
65659;BME280;60181;53.258;6.932;2023-09-19T05:09:27;100697.99;;;19.96;61.26
65659;BME280;60181;53.258;6.932;2023-09-19T05:13:47;100700.93;;;19.94;61.13
65659;BME280;60181;53.258;6.932;2023-09-19T05:18:07;100703.09;;;19.92;61.03
65659;BME280;60181;53.258;6.932;2023-09-19T05:22:27;100705.69;;;19.91;61.03
65659;BME280;60181;53.258;6.932;2023-09-19T05:26:47;100707.20;;;19.90;60.96
65659;BME280;60181;53.258;6.932;2023-09-19T05:31:07;100709.61;;;19.90;61.30
65659;BME280;60181;53.258;6.932;2023-09-19T05:35:27;100711.04;;;19.89;61.02
65659;BME280;60181;53.258;6.932;2023-09-19T05:39:47;100713.26;;;19.89;61.17
65659;BME280;60181;53.258;6.932;2023-09-19T05:44:07;100714.95;;;19.89;61.29
65659;BME280;60181;53.258;6.932;2023-09-19T05:48:27;100717.27;;;19.89;61.33
65659;BME280;60181;53.258;6.932;2023-09-19T05:52:53;100718.29;;;19.88;61.45
65659;BME280;60181;53.258;6.932;2023-09-19T05:57:07;100720.18;;;19.88;61.42
65659;BME280;60181;53.258;6.932;2023-09-19T06:01:27;100720.61;;;19.88;61.60
65659;BME280;60181;53.258;6.932;2023-09-19T06:05:47;100720.03;;;19.87;61.51
65659;BME280;60181;53.258;6.932;2023-09-19T06:10:07;100719.30;;;19.87;61.56
65659;BME280;60181;53.258;6.932;2023-09-19T06:14:27;100719.02;;;19.87;61.63
65659;BME280;60181;53.258;6.932;2023-09-19T06:18:47;100722.44;;;19.87;61.73
65659;BME280;60181;53.258;6.932;2023-09-19T06:23:07;100727.33;;;19.86;61.84
65659;BME280;60181;53.258;6.932;2023-09-19T06:27:27;100732.15;;;19.86;61.85
65659;BME280;60181;53.258;6.932;2023-09-19T06:31:47;100739.06;;;19.87;61.89
65659;BME280;60181;53.258;6.932;2023-09-19T06:36:07;100746.23;;;19.87;61.82
65659;BME280;60181;53.258;6.932;2023-09-19T06:40:27;100751.78;;;19.87;61.94
65659;BME280;60181;53.258;6.932;2023-09-19T06:44:47;100755.92;;;19.88;62.12
65659;BME280;60181;53.258;6.932;2023-09-19T06:49:07;100758.35;;;19.88;62.12
65659;BME280;60181;53.258;6.932;2023-09-19T06:53:27;100759.66;;;19.89;62.22
65659;BME280;60181;53.258;6.932;2023-09-19T06:57:47;100759.41;;;19.89;62.36
65659;BME280;60181;53.258;6.932;2023-09-19T07:02:07;100758.21;;;19.92;62.81
65659;BME280;60181;53.258;6.932;2023-09-19T07:06:27;100755.86;;;19.95;63.04
65659;BME280;60181;53.258;6.932;2023-09-19T07:10:47;100755.41;;;19.98;63.05
65659;BME280;60181;53.258;6.932;2023-09-19T07:15:07;100755.10;;;20.01;63.05
65659;BME280;60181;53.258;6.932;2023-09-19T07:19:27;100755.10;;;20.04;63.12
65659;BME280;60181;53.258;6.932;2023-09-19T07:23:47;100755.72;;;20.06;63.10
65659;BME280;60181;53.258;6.932;2023-09-19T07:28:07;100756.67;;;20.09;63.18
65659;BME280;60181;53.258;6.932;2023-09-19T07:32:27;100759.39;;;20.11;63.21
65659;BME280;60181;53.258;6.932;2023-09-19T07:36:47;100763.20;;;20.14;63.22
65659;BME280;60181;53.258;6.932;2023-09-19T07:41:07;100766.08;;;20.16;63.26
65659;BME280;60181;53.258;6.932;2023-09-19T07:45:33;100768.39;;;20.18;63.29
65659;BME280;60181;53.258;6.932;2023-09-19T07:49:47;100768.38;;;20.20;63.27
65659;BME280;60181;53.258;6.932;2023-09-19T07:54:07;100769.23;;;20.23;63.20
65659;BME280;60181;53.258;6.932;2023-09-19T07:58:27;100769.27;;;20.27;63.14
65659;BME280;60181;53.258;6.932;2023-09-19T08:02:47;100771.06;;;20.31;63.01
65659;BME280;60181;53.258;6.932;2023-09-19T08:07:07;100771.85;;;20.33;63.76
65659;BME280;60181;53.258;6.932;2023-09-19T08:11:27;100773.08;;;20.36;64.23
65659;BME280;60181;53.258;6.932;2023-09-19T08:15:47;100774.67;;;20.39;64.50
65659;BME280;60181;53.258;6.932;2023-09-19T08:20:07;100774.16;;;20.43;65.15
65659;BME280;60181;53.258;6.932;2023-09-19T08:24:30;100774.74;;;20.49;64.81
65659;BME280;60181;53.258;6.932;2023-09-19T08:28:47;100776.40;;;20.53;65.17
65659;BME280;60181;53.258;6.932;2023-09-19T08:33:07;100776.98;;;20.61;65.14
65659;BME280;60181;53.258;6.932;2023-09-19T08:37:27;100778.63;;;20.69;64.87
65659;BME280;60181;53.258;6.932;2023-09-19T08:41:47;100780.46;;;20.76;65.06
65659;BME280;60181;53.258;6.932;2023-09-19T08:50:27;100786.84;;;20.85;65.57
65659;BME280;60181;53.258;6.932;2023-09-19T08:54:47;100788.03;;;20.88;65.50
65659;BME280;60181;53.258;6.932;2023-09-19T08:59:07;100790.52;;;20.89;65.56
65659;BME280;60181;53.258;6.932;2023-09-19T09:03:29;100792.16;;;20.89;65.50
65659;BME280;60181;53.258;6.932;2023-09-19T09:07:47;100792.97;;;20.90;65.67
65659;BME280;60181;53.258;6.932;2023-09-19T09:12:07;100793.41;;;20.91;65.51
65659;BME280;60181;53.258;6.932;2023-09-19T09:16:27;100793.66;;;20.91;65.49
65659;BME280;60181;53.258;6.932;2023-09-19T09:20:47;100795.45;;;20.91;65.37
65659;BME280;60181;53.258;6.932;2023-09-19T09:25:07;100797.49;;;20.91;65.43
65659;BME280;60181;53.258;6.932;2023-09-19T09:29:43;100799.49;;;20.90;65.45
65659;BME280;60181;53.258;6.932;2023-09-19T09:33:52;100800.84;;;20.89;65.50
65659;BME280;60181;53.258;6.932;2023-09-19T09:38:07;100800.69;;;20.88;65.36
65659;BME280;60181;53.258;6.932;2023-09-19T09:42:30;100799.20;;;20.87;65.23
65659;BME280;60181;53.258;6.932;2023-09-19T09:46:47;100798.26;;;20.88;65.10
65659;BME280;60181;53.258;6.932;2023-09-19T09:51:07;100796.70;;;20.88;65.15
65659;BME280;60181;53.258;6.932;2023-09-19T09:55:27;100796.01;;;20.89;65.14
65659;BME280;60181;53.258;6.932;2023-09-19T09:59:50;100793.75;;;20.89;65.12
65659;BME280;60181;53.258;6.932;2023-09-19T10:04:07;100792.49;;;20.89;65.18
65659;BME280;60181;53.258;6.932;2023-09-19T10:08:27;100788.39;;;20.91;65.03
65659;BME280;60181;53.258;6.932;2023-09-19T10:12:47;100785.21;;;20.93;65.33
65659;BME280;60181;53.258;6.932;2023-09-19T10:17:07;100783.17;;;20.95;65.35
65659;BME280;60181;53.258;6.932;2023-09-19T10:21:27;100779.91;;;20.96;65.38
65659;BME280;60181;53.258;6.932;2023-09-19T10:25:47;100776.31;;;20.97;65.35
65659;BME280;60181;53.258;6.932;2023-09-19T10:30:07;100775.22;;;20.97;65.38
65659;BME280;60181;53.258;6.932;2023-09-19T10:34:26;100775.16;;;20.97;65.49
65659;BME280;60181;53.258;6.932;2023-09-19T10:38:47;100772.89;;;20.97;65.42
65659;BME280;60181;53.258;6.932;2023-09-19T10:43:06;100771.72;;;20.99;65.27
65659;BME280;60181;53.258;6.932;2023-09-19T10:47:26;100766.87;;;21.01;65.17
65659;BME280;60181;53.258;6.932;2023-09-19T10:51:47;100760.91;;;21.03;65.12
65659;BME280;60181;53.258;6.932;2023-09-19T10:56:06;100754.29;;;21.05;65.11
65659;BME280;60181;53.258;6.932;2023-09-19T11:00:26;100750.12;;;21.06;65.07
65659;BME280;60181;53.258;6.932;2023-09-19T11:04:46;100746.10;;;21.07;65.10
65659;BME280;60181;53.258;6.932;2023-09-19T11:09:06;100744.65;;;21.08;65.13
65659;BME280;60181;53.258;6.932;2023-09-19T11:13:27;100744.17;;;21.09;65.40
65659;BME280;60181;53.258;6.932;2023-09-19T11:17:46;100742.82;;;21.10;65.45
65659;BME280;60181;53.258;6.932;2023-09-19T11:22:06;100737.87;;;21.11;65.53
65659;BME280;60181;53.258;6.932;2023-09-19T11:26:42;100736.04;;;21.11;65.64
65659;BME280;60181;53.258;6.932;2023-09-19T11:30:47;100731.55;;;21.11;65.67
65659;BME280;60181;53.258;6.932;2023-09-19T11:35:07;100728.65;;;21.11;65.63
65659;BME280;60181;53.258;6.932;2023-09-19T11:39:26;100726.53;;;21.12;65.57
65659;BME280;60181;53.258;6.932;2023-09-19T11:43:50;100722.20;;;21.12;65.66
65659;BME280;60181;53.258;6.932;2023-09-19T11:48:06;100718.31;;;21.12;65.57
65659;BME280;60181;53.258;6.932;2023-09-19T11:52:26;100713.72;;;21.12;65.59
65659;BME280;60181;53.258;6.932;2023-09-19T11:56:48;100708.63;;;21.13;65.43
65659;BME280;60181;53.258;6.932;2023-09-19T12:01:06;100703.69;;;21.13;65.56
65659;BME280;60181;53.258;6.932;2023-09-19T12:05:29;100696.89;;;21.12;65.53
65659;BME280;60181;53.258;6.932;2023-09-19T12:09:50;100690.83;;;21.12;65.50
65659;BME280;60181;53.258;6.932;2023-09-19T12:14:06;100687.66;;;21.11;65.54
65659;BME280;60181;53.258;6.932;2023-09-19T12:18:27;100684.41;;;21.11;65.42
65659;BME280;60181;53.258;6.932;2023-09-19T12:22:46;100680.55;;;21.09;65.26
65659;BME280;60181;53.258;6.932;2023-09-19T12:27:06;100678.16;;;21.08;65.26
65659;BME280;60181;53.258;6.932;2023-09-19T12:31:26;100673.61;;;21.06;65.41
65659;BME280;60181;53.258;6.932;2023-09-19T12:35:46;100669.62;;;21.05;65.32
65659;BME280;60181;53.258;6.932;2023-09-19T12:40:07;100668.48;;;21.03;65.35
65659;BME280;60181;53.258;6.932;2023-09-19T12:44:26;100668.66;;;21.02;65.40
65659;BME280;60181;53.258;6.932;2023-09-19T12:48:46;100666.11;;;21.00;65.40
65659;BME280;60181;53.258;6.932;2023-09-19T12:53:06;100664.39;;;20.99;65.43
65659;BME280;60181;53.258;6.932;2023-09-19T12:57:26;100661.08;;;20.98;65.35
65659;BME280;60181;53.258;6.932;2023-09-19T13:01:46;100657.00;;;20.98;65.33
65659;BME280;60181;53.258;6.932;2023-09-19T13:06:06;100651.92;;;20.98;65.33
65659;BME280;60181;53.258;6.932;2023-09-19T13:10:26;100648.35;;;20.98;65.42
65659;BME280;60181;53.258;6.932;2023-09-19T13:14:46;100644.45;;;20.97;65.41
65659;BME280;60181;53.258;6.932;2023-09-19T13:19:06;100640.03;;;20.97;65.47
65659;BME280;60181;53.258;6.932;2023-09-19T13:23:26;100637.58;;;20.95;65.55
65659;BME280;60181;53.258;6.932;2023-09-19T13:27:50;100634.75;;;20.94;65.62
65659;BME280;60181;53.258;6.932;2023-09-19T13:32:06;100632.12;;;20.92;65.58
65659;BME280;60181;53.258;6.932;2023-09-19T13:36:26;100630.15;;;20.91;65.63
65659;BME280;60181;53.258;6.932;2023-09-19T13:40:46;100628.16;;;20.90;65.66
65659;BME280;60181;53.258;6.932;2023-09-19T13:45:07;100625.55;;;20.88;65.69
65659;BME280;60181;53.258;6.932;2023-09-19T13:49:26;100625.89;;;20.87;65.76
65659;BME280;60181;53.258;6.932;2023-09-19T13:53:46;100626.57;;;20.86;65.80
65659;BME280;60181;53.258;6.932;2023-09-19T13:58:06;100630.52;;;20.85;65.80
65659;BME280;60181;53.258;6.932;2023-09-19T14:02:26;100635.52;;;20.84;65.82
65659;BME280;60181;53.258;6.932;2023-09-19T14:06:46;100638.61;;;20.83;65.83
65659;BME280;60181;53.258;6.932;2023-09-19T14:11:07;100638.09;;;20.83;65.83
65659;BME280;60181;53.258;6.932;2023-09-19T14:15:27;100637.87;;;20.83;65.87
65659;BME280;60181;53.258;6.932;2023-09-19T14:19:46;100632.78;;;20.83;65.90
65659;BME280;60181;53.258;6.932;2023-09-19T14:24:06;100628.11;;;20.83;65.98
65659;BME280;60181;53.258;6.932;2023-09-19T14:28:26;100623.38;;;20.83;65.91
65659;BME280;60181;53.258;6.932;2023-09-19T14:32:46;100618.22;;;20.82;65.87
65659;BME280;60181;53.258;6.932;2023-09-19T14:37:06;100613.65;;;20.82;65.83
65659;BME280;60181;53.258;6.932;2023-09-19T14:41:26;100607.24;;;20.81;65.79
65659;BME280;60181;53.258;6.932;2023-09-19T14:45:46;100602.94;;;20.81;65.75
65659;BME280;60181;53.258;6.932;2023-09-19T14:50:06;100600.44;;;20.81;65.61
65659;BME280;60181;53.258;6.932;2023-09-19T14:54:26;100599.70;;;20.81;65.89
65659;BME280;60181;53.258;6.932;2023-09-19T14:58:46;100599.28;;;20.81;66.16
65659;BME280;60181;53.258;6.932;2023-09-19T15:03:06;100598.92;;;20.82;66.84
65659;BME280;60181;53.258;6.932;2023-09-19T15:07:26;100599.64;;;20.83;66.90
65659;BME280;60181;53.258;6.932;2023-09-19T15:11:46;100599.15;;;20.83;67.07
65659;BME280;60181;53.258;6.932;2023-09-19T15:16:07;100597.05;;;20.83;67.06
65659;BME280;60181;53.258;6.932;2023-09-19T15:20:26;100595.06;;;20.84;67.13
65659;BME280;60181;53.258;6.932;2023-09-19T15:24:46;100594.37;;;20.85;66.91
65659;BME280;60181;53.258;6.932;2023-09-19T15:29:06;100595.54;;;20.85;67.08
65659;BME280;60181;53.258;6.932;2023-09-19T15:33:26;100598.30;;;20.84;67.40
65659;BME280;60181;53.258;6.932;2023-09-19T15:37:46;100601.72;;;20.83;67.35
65659;BME280;60181;53.258;6.932;2023-09-19T15:42:06;100605.07;;;20.83;67.32
65659;BME280;60181;53.258;6.932;2023-09-19T15:46:26;100612.22;;;20.82;67.35
65659;BME280;60181;53.258;6.932;2023-09-19T15:50:46;100614.81;;;20.82;67.44
65659;BME280;60181;53.258;6.932;2023-09-19T15:55:06;100617.42;;;20.81;67.45
65659;BME280;60181;53.258;6.932;2023-09-19T15:59:26;100619.34;;;20.80;67.49
65659;BME280;60181;53.258;6.932;2023-09-19T16:03:50;100621.26;;;20.79;67.43
65659;BME280;60181;53.258;6.932;2023-09-19T16:08:06;100622.71;;;20.79;67.44
65659;BME280;60181;53.258;6.932;2023-09-19T16:12:26;100625.70;;;20.78;67.52
65659;BME280;60181;53.258;6.932;2023-09-19T16:16:46;100627.55;;;20.78;67.43
65659;BME280;60181;53.258;6.932;2023-09-19T16:21:06;100628.48;;;20.77;67.38
65659;BME280;60181;53.258;6.932;2023-09-19T16:25:26;100629.63;;;20.77;67.50
65659;BME280;60181;53.258;6.932;2023-09-19T16:29:47;100629.89;;;20.76;67.43
65659;BME280;60181;53.258;6.932;2023-09-19T16:34:06;100630.67;;;20.75;67.49
65659;BME280;60181;53.258;6.932;2023-09-19T16:38:27;100632.30;;;20.75;67.50
65659;BME280;60181;53.258;6.932;2023-09-19T16:42:46;100633.31;;;20.74;67.48
65659;BME280;60181;53.258;6.932;2023-09-19T16:47:06;100633.07;;;20.73;67.48
65659;BME280;60181;53.258;6.932;2023-09-19T16:51:26;100634.33;;;20.73;67.40
65659;BME280;60181;53.258;6.932;2023-09-19T16:55:46;100635.60;;;20.73;67.42
65659;BME280;60181;53.258;6.932;2023-09-19T17:00:06;100635.49;;;20.73;67.40
65659;BME280;60181;53.258;6.932;2023-09-19T17:04:26;100635.67;;;20.72;67.32
65659;BME280;60181;53.258;6.932;2023-09-19T17:08:46;100637.66;;;20.72;67.29
65659;BME280;60181;53.258;6.932;2023-09-19T17:13:06;100638.45;;;20.71;67.32
65659;BME280;60181;53.258;6.932;2023-09-19T17:17:26;100640.11;;;20.70;67.36
65659;BME280;60181;53.258;6.932;2023-09-19T17:21:46;100642.39;;;20.70;67.47
65659;BME280;60181;53.258;6.932;2023-09-19T17:26:07;100643.38;;;20.69;67.44
65659;BME280;60181;53.258;6.932;2023-09-19T17:30:26;100646.12;;;20.68;67.37
65659;BME280;60181;53.258;6.932;2023-09-19T17:34:47;100646.91;;;20.67;67.38
65659;BME280;60181;53.258;6.932;2023-09-19T17:39:06;100648.33;;;20.67;67.34
65659;BME280;60181;53.258;6.932;2023-09-19T17:43:26;100648.35;;;20.66;67.39
65659;BME280;60181;53.258;6.932;2023-09-19T17:47:46;100648.10;;;20.65;67.46
65659;BME280;60181;53.258;6.932;2023-09-19T17:52:06;100647.93;;;20.65;67.46
65659;BME280;60181;53.258;6.932;2023-09-19T17:56:27;100648.71;;;20.64;67.42
65659;BME280;60181;53.258;6.932;2023-09-19T18:00:46;100649.87;;;20.64;67.42
65659;BME280;60181;53.258;6.932;2023-09-19T18:05:06;100650.56;;;20.63;67.47
65659;BME280;60181;53.258;6.932;2023-09-19T18:09:26;100651.71;;;20.63;67.53
65659;BME280;60181;53.258;6.932;2023-09-19T18:13:46;100652.73;;;20.62;67.47
65659;BME280;60181;53.258;6.932;2023-09-19T18:18:06;100653.32;;;20.61;67.40
65659;BME280;60181;53.258;6.932;2023-09-19T18:22:26;100654.74;;;20.60;67.35
65659;BME280;60181;53.258;6.932;2023-09-19T18:26:46;100658.61;;;20.59;67.30
65659;BME280;60181;53.258;6.932;2023-09-19T18:31:06;100660.28;;;20.58;67.28
65659;BME280;60181;53.258;6.932;2023-09-19T18:35:26;100663.03;;;20.58;67.27
65659;BME280;60181;53.258;6.932;2023-09-19T18:39:46;100664.28;;;20.57;67.21
65659;BME280;60181;53.258;6.932;2023-09-19T18:44:06;100666.56;;;20.56;67.26
65659;BME280;60181;53.258;6.932;2023-09-19T18:48:26;100669.89;;;20.56;67.17
65659;BME280;60181;53.258;6.932;2023-09-19T18:52:46;100671.73;;;20.55;67.19
65659;BME280;60181;53.258;6.932;2023-09-19T18:57:06;100674.65;;;20.54;67.17
65659;BME280;60181;53.258;6.932;2023-09-19T19:01:26;100677.64;;;20.54;67.16
65659;BME280;60181;53.258;6.932;2023-09-19T19:05:46;100680.98;;;20.53;67.17
65659;BME280;60181;53.258;6.932;2023-09-19T19:10:06;100684.34;;;20.53;67.16
65659;BME280;60181;53.258;6.932;2023-09-19T19:14:26;100686.33;;;20.52;67.15
65659;BME280;60181;53.258;6.932;2023-09-19T19:18:46;100687.74;;;20.51;67.12
65659;BME280;60181;53.258;6.932;2023-09-19T19:23:06;100687.59;;;20.51;67.13
65659;BME280;60181;53.258;6.932;2023-09-19T19:27:26;100687.42;;;20.50;67.14
65659;BME280;60181;53.258;6.932;2023-09-19T19:31:46;100687.45;;;20.50;67.16
65659;BME280;60181;53.258;6.932;2023-09-19T19:36:06;100687.30;;;20.49;67.14
65659;BME280;60181;53.258;6.932;2023-09-19T19:40:26;100687.03;;;20.49;67.11
65659;BME280;60181;53.258;6.932;2023-09-19T19:44:46;100688.79;;;20.49;67.15
65659;BME280;60181;53.258;6.932;2023-09-19T19:49:06;100690.55;;;20.49;67.27
65659;BME280;60181;53.258;6.932;2023-09-19T19:53:26;100689.96;;;20.49;67.20
65659;BME280;60181;53.258;6.932;2023-09-19T19:57:46;100692.36;;;20.49;67.09
65659;BME280;60181;53.258;6.932;2023-09-19T20:02:06;100694.64;;;20.48;67.14
65659;BME280;60181;53.258;6.932;2023-09-19T20:06:26;100695.14;;;20.47;67.41
65659;BME280;60181;53.258;6.932;2023-09-19T20:10:46;100695.89;;;20.46;67.77
65659;BME280;60181;53.258;6.932;2023-09-19T20:15:06;100695.84;;;20.45;67.58
65659;BME280;60181;53.258;6.932;2023-09-19T20:19:26;100697.66;;;20.45;67.58
65659;BME280;60181;53.258;6.932;2023-09-19T20:23:46;100698.61;;;20.44;67.68
65659;BME280;60181;53.258;6.932;2023-09-19T20:28:06;100696.53;;;20.43;67.57
65659;BME280;60181;53.258;6.932;2023-09-19T20:32:26;100696.53;;;20.43;68.20
65659;BME280;60181;53.258;6.932;2023-09-19T20:36:46;100695.35;;;20.43;67.69
65659;BME280;60181;53.258;6.932;2023-09-19T20:41:06;100695.12;;;20.41;67.66
65659;BME280;60181;53.258;6.932;2023-09-19T20:45:26;100694.90;;;20.40;67.68
65659;BME280;60181;53.258;6.932;2023-09-19T20:49:46;100694.10;;;20.38;67.51
65659;BME280;60181;53.258;6.932;2023-09-19T20:54:06;100692.38;;;20.37;67.64
65659;BME280;60181;53.258;6.932;2023-09-19T20:58:26;100690.38;;;20.36;67.54
65659;BME280;60181;53.258;6.932;2023-09-19T21:02:46;100687.50;;;20.34;67.49
65659;BME280;60181;53.258;6.932;2023-09-19T21:07:06;100684.70;;;20.33;67.54
65659;BME280;60181;53.258;6.932;2023-09-19T21:11:26;100681.13;;;20.32;67.53
65659;BME280;60181;53.258;6.932;2023-09-19T21:15:46;100678.23;;;20.30;67.58
65659;BME280;60181;53.258;6.932;2023-09-19T21:20:06;100677.34;;;20.29;67.56
65659;BME280;60181;53.258;6.932;2023-09-19T21:24:26;100677.69;;;20.28;67.53
65659;BME280;60181;53.258;6.932;2023-09-19T21:28:46;100676.54;;;20.26;67.68
65659;BME280;60181;53.258;6.932;2023-09-19T21:33:06;100675.66;;;20.25;67.60
65659;BME280;60181;53.258;6.932;2023-09-19T21:37:26;100675.48;;;20.25;67.53
65659;BME280;60181;53.258;6.932;2023-09-19T21:41:46;100674.44;;;20.24;67.50
65659;BME280;60181;53.258;6.932;2023-09-19T21:46:06;100675.32;;;20.25;67.01
65659;BME280;60181;53.258;6.932;2023-09-19T21:50:26;100675.14;;;20.26;67.05
65659;BME280;60181;53.258;6.932;2023-09-19T21:54:46;100675.47;;;20.26;67.10
65659;BME280;60181;53.258;6.932;2023-09-19T21:59:06;100675.57;;;20.25;67.21
65659;BME280;60181;53.258;6.932;2023-09-19T22:03:26;100674.50;;;20.25;67.30
65659;BME280;60181;53.258;6.932;2023-09-19T22:07:46;100673.33;;;20.25;67.37
65659;BME280;60181;53.258;6.932;2023-09-19T22:12:06;100673.91;;;20.24;67.45
65659;BME280;60181;53.258;6.932;2023-09-19T22:16:26;100673.77;;;20.24;67.45
65659;BME280;60181;53.258;6.932;2023-09-19T22:20:48;100673.60;;;20.23;67.54
65659;BME280;60181;53.258;6.932;2023-09-19T22:25:06;100674.27;;;20.23;67.53
65659;BME280;60181;53.258;6.932;2023-09-19T22:29:26;100675.61;;;20.23;67.55
65659;BME280;60181;53.258;6.932;2023-09-19T22:33:46;100676.61;;;20.23;67.62
65659;BME280;60181;53.258;6.932;2023-09-19T22:38:06;100675.17;;;20.22;67.61
65659;BME280;60181;53.258;6.932;2023-09-19T22:42:26;100675.86;;;20.22;67.63
65659;BME280;60181;53.258;6.932;2023-09-19T22:46:46;100676.20;;;20.22;67.66
65659;BME280;60181;53.258;6.932;2023-09-19T22:51:05;100677.78;;;20.22;67.63
65659;BME280;60181;53.258;6.932;2023-09-19T22:55:26;100677.62;;;20.22;67.63